Time;durP1;ratioP1;P1;durP2;ratioP2;P2;SDS_P1;SDS_P2;PMS_P1;PMS_P2;Temp;Humidity;BMP_temperature;BMP_pressure;BME280_temperature;BME280_humidity;BME280_pressure;Samples;Min_cycle;Max_cycle;Signal;HPM_P1;HPM_P2
2022/11/08 00:03:33;;;;;;;1999.90;999.90;;;8.00;99.90;;;;;;5091155;28;20421;-71
2022/11/08 00:14:12;;;;;;;1999.90;999.90;;;8.10;99.90;;;;;;5092349;28;20863;-71
2022/11/08 00:16:39;;;;;;;1999.90;999.90;;;8.20;99.90;;;;;;5092196;28;20947;-71
2022/11/08 00:19:07;;;;;;;1999.90;999.90;;;8.20;99.90;;;;;;5092424;28;20442;-72
2022/11/08 00:21:34;;;;;;;1999.90;999.90;;;8.30;99.90;;;;;;5092649;28;20446;-72
2022/11/08 00:24:01;;;;;;;1999.90;999.90;;;8.20;99.90;;;;;;5092949;28;20450;-71
2022/11/08 00:26:28;;;;;;;1999.90;999.90;;;8.20;99.90;;;;;;5093180;28;20449;-71
2022/11/08 00:28:54;;;;;;;1999.90;999.90;;;8.30;99.90;;;;;;5091717;28;20500;-72
2022/11/08 00:31:21;;;;;;;1999.90;999.90;;;8.20;99.90;;;;;;5092744;28;20486;-72
2022/11/08 00:33:48;;;;;;;1999.90;999.90;;;8.20;99.90;;;;;;5092314;28;21094;-71
2022/11/08 00:36:16;;;;;;;1999.90;999.90;;;8.10;99.90;;;;;;5093273;28;20944;-70
2022/11/08 00:38:43;;;;;;;1999.90;999.90;;;8.00;99.90;;;;;;5092159;28;20451;-71
2022/11/08 00:41:10;;;;;;;1999.90;999.90;;;7.90;99.90;;;;;;5090841;28;20455;-71
2022/11/08 00:43:37;;;;;;;1999.90;999.90;;;7.90;99.90;;;;;;5091248;28;20451;-72
2022/11/08 00:46:04;;;;;;;1999.90;999.90;;;7.80;99.90;;;;;;5091400;28;20462;-71
2022/11/08 00:48:30;;;;;;;1999.90;999.90;;;7.70;99.90;;;;;;5091230;28;20446;-71
2022/11/08 00:51:01;;;;;;;1999.90;999.90;;;7.50;99.90;;;;;;5090880;28;20486;-70
2022/11/08 00:53:30;;;;;;;1999.90;999.90;;;7.50;99.90;;;;;;5090778;28;20965;-71
2022/11/08 00:56:00;;;;;;;1999.90;999.90;;;7.50;99.90;;;;;;5090969;28;20553;-71
2022/11/08 00:58:27;;;;;;;1999.90;999.90;;;7.40;99.90;;;;;;5091256;28;20446;-71
2022/11/08 01:00:54;;;;;;;1999.90;999.90;;;7.30;99.90;;;;;;5090727;28;21010;-71
2022/11/08 01:03:22;;;;;;;1999.90;999.90;;;7.30;99.90;;;;;;5090922;28;20789;-71
2022/11/08 01:05:51;;;;;;;1999.90;999.90;;;7.20;99.90;;;;;;5090709;28;20453;-72
2022/11/08 01:08:20;;;;;;;1999.90;999.90;;;7.20;99.90;;;;;;5091058;28;20464;-72
2022/11/08 01:10:50;;;;;;;1999.90;999.90;;;7.10;99.90;;;;;;5090733;28;20486;-72
2022/11/08 01:13:18;;;;;;;1999.90;999.90;;;7.10;99.90;;;;;;5090494;28;20976;-71
2022/11/08 01:15:46;;;;;;;1999.90;999.90;;;7.20;99.90;;;;;;5091675;28;20989;-71
2022/11/08 01:18:14;;;;;;;1999.90;999.90;;;7.30;99.90;;;;;;5090420;28;20453;-71
2022/11/08 01:20:42;;;;;;;1999.90;999.90;;;7.30;99.90;;;;;;5090571;28;20458;-71
2022/11/08 01:23:09;;;;;;;1999.90;999.90;;;7.40;99.90;;;;;;5090594;28;20948;-71
2022/11/08 01:25:37;;;;;;;1999.90;999.90;;;7.40;99.90;;;;;;5089825;28;20950;-71
2022/11/08 01:28:06;;;;;;;1999.90;999.90;;;7.40;99.90;;;;;;5090699;28;20450;-71
2022/11/08 01:30:36;;;;;;;1999.90;999.90;;;7.30;99.90;;;;;;5090284;28;20466;-71
2022/11/08 01:33:03;;;;;;;1999.90;999.90;;;7.30;99.90;;;;;;5090508;28;20443;-71
2022/11/08 01:35:30;;;;;;;1999.90;999.90;;;7.20;99.90;;;;;;5089997;28;20450;-71
2022/11/08 01:37:57;;;;;;;1999.90;999.90;;;7.20;99.90;;;;;;5090569;28;20445;-71
2022/11/08 01:40:24;;;;;;;1999.90;999.90;;;7.20;99.90;;;;;;5090267;28;20984;-71
2022/11/08 01:42:51;;;;;;;1999.90;999.90;;;7.10;99.90;;;;;;5090178;28;20438;-71
2022/11/08 01:45:50;;;;;;;1999.90;999.90;;;7.20;99.90;;;;;;5090107;28;20525;-71
2022/11/08 01:48:18;;;;;;;1999.90;999.90;;;7.10;99.90;;;;;;5089507;28;20446;-72
2022/11/08 01:50:46;;;;;;;1999.90;999.90;;;7.10;99.90;;;;;;5090239;28;21002;-71
2022/11/08 01:53:12;;;;;;;1999.90;999.90;;;7.00;99.90;;;;;;5090456;28;20446;-71
2022/11/08 01:55:39;;;;;;;1999.90;999.90;;;7.00;99.90;;;;;;5090286;28;20442;-71
2022/11/08 01:58:10;;;;;;;1999.90;999.90;;;7.00;99.90;;;;;;5090138;28;20448;-71
2022/11/08 02:00:38;;;;;;;1999.90;999.90;;;6.90;99.90;;;;;;5090099;28;20480;-70
2022/11/08 02:03:06;;;;;;;1999.90;999.90;;;6.90;99.90;;;;;;5089617;28;20829;-72
2022/11/08 02:05:35;;;;;;;1999.90;999.90;;;6.90;99.90;;;;;;5089959;28;20442;-71
2022/11/08 02:08:05;;;;;;;1999.90;999.90;;;6.80;99.90;;;;;;5089890;28;20446;-71
2022/11/08 02:10:35;;;;;;;1999.90;999.90;;;6.80;99.90;;;;;;5090059;28;21146;-71
2022/11/08 02:13:03;;;;;;;1999.90;999.90;;;6.70;99.90;;;;;;5090095;28;20438;-71
2022/11/08 02:15:30;;;;;;;1999.90;999.90;;;6.70;99.90;;;;;;5089660;28;20438;-71
2022/11/08 02:17:57;;;;;;;1999.90;999.90;;;6.80;99.90;;;;;;5089766;28;20446;-71
2022/11/08 02:20:24;;;;;;;1999.90;999.90;;;6.70;99.90;;;;;;5089612;28;20462;-71
2022/11/08 02:22:59;;;;;;;1999.90;999.90;;;6.80;99.90;;;;;;5089162;28;20442;-71
2022/11/08 02:25:28;;;;;;;1999.90;999.90;;;6.80;99.90;;;;;;5089943;28;20449;-71
2022/11/08 02:27:55;;;;;;;1999.90;999.90;;;6.80;99.90;;;;;;5089934;28;20445;-71
2022/11/08 02:30:21;;;;;;;1999.90;999.90;;;6.80;99.90;;;;;;5089493;28;20481;-72
2022/11/08 02:32:48;;;;;;;1999.90;999.90;;;6.80;99.90;;;;;;5089350;28;20489;-71
2022/11/08 02:35:18;;;;;;;1999.90;999.90;;;6.70;99.90;;;;;;5089580;28;20476;-71
2022/11/08 02:37:46;;;;;;;1999.90;999.90;;;6.80;99.90;;;;;;5092634;28;20452;-72
2022/11/08 02:40:13;;;;;;;1999.90;999.90;;;6.70;99.90;;;;;;5093636;28;21052;-72
2022/11/08 02:42:41;;;;;;;1999.90;999.90;;;6.70;99.90;;;;;;5093304;28;20434;-72
2022/11/08 02:45:09;;;;;;;1999.90;999.90;;;6.60;99.90;;;;;;5093635;28;20449;-72
2022/11/08 02:47:36;;;;;;;1999.90;999.90;;;6.60;99.90;;;;;;5093687;28;20458;-71
2022/11/08 02:50:02;;;;;;;1999.90;999.90;;;6.60;99.90;;;;;;5093482;28;20470;-71
2022/11/08 02:52:29;;;;;;;1999.90;999.90;;;6.50;99.90;;;;;;5093498;28;20489;-71
2022/11/08 02:54:56;;;;;;;1999.90;999.90;;;6.50;99.90;;;;;;5093577;28;20445;-71
2022/11/08 02:57:23;;;;;;;1999.90;999.90;;;6.50;99.90;;;;;;5093663;28;20442;-71
2022/11/08 02:59:51;;;;;;;1999.90;999.90;;;6.60;99.90;;;;;;5093216;28;20454;-71
2022/11/08 03:02:17;;;;;;;1999.90;999.90;;;6.50;99.90;;;;;;5093202;28;20440;-71
2022/11/08 03:04:44;;;;;;;1999.90;999.90;;;6.50;99.90;;;;;;5093583;28;20441;-71
2022/11/08 03:07:11;;;;;;;1999.90;999.90;;;6.50;99.90;;;;;;5093411;28;20446;-71
2022/11/08 03:09:38;;;;;;;1999.90;999.90;;;6.50;99.90;;;;;;5093184;28;20825;-70
2022/11/08 03:12:05;;;;;;;1999.90;999.90;;;6.40;99.90;;;;;;5092981;28;20482;-71
2022/11/08 03:14:31;;;;;;;1999.90;999.90;;;6.40;99.90;;;;;;5093019;28;20442;-71
2022/11/08 03:17:00;;;;;;;1999.90;999.90;;;6.60;99.90;;;;;;5093059;28;20438;-71
2022/11/08 03:19:26;;;;;;;1999.90;999.90;;;6.50;99.90;;;;;;5093309;28;20473;-72
2022/11/08 03:21:53;;;;;;;1999.90;999.90;;;6.60;99.90;;;;;;5092860;28;20821;-71
2022/11/08 03:24:20;;;;;;;1999.90;999.90;;;6.50;99.90;;;;;;5093191;28;20445;-71
2022/11/08 03:26:46;;;;;;;1999.90;999.90;;;6.50;99.90;;;;;;5093328;28;20446;-71
2022/11/08 03:29:13;;;;;;;1999.90;999.90;;;6.40;99.90;;;;;;5092981;28;20476;-71
2022/11/08 03:31:40;;;;;;;1999.90;999.90;;;6.50;99.90;;;;;;5092770;28;20478;-71
2022/11/08 03:34:09;;;;;;;1999.90;999.90;;;6.50;99.90;;;;;;5093108;28;20446;-71
2022/11/08 03:36:36;;;;;;;1999.90;999.90;;;6.60;99.90;;;;;;5093547;28;20442;-71
2022/11/08 03:39:03;;;;;;;1999.90;999.90;;;6.60;99.90;;;;;;5094986;28;20469;-71
2022/11/08 03:41:29;;;;;;;1999.90;999.90;;;6.60;99.90;;;;;;5093417;28;20449;-71
2022/11/08 03:43:57;;;;;;;1999.90;999.90;;;6.70;99.90;;;;;;5092356;28;20442;-71
2022/11/08 03:46:23;;;;;;;1999.90;999.90;;;6.70;99.90;;;;;;5092793;28;20480;-71
2022/11/08 03:48:50;;;;;;;1999.90;999.90;;;6.70;99.90;;;;;;5091866;28;20469;-71
2022/11/08 03:51:18;;;;;;;1999.90;999.90;;;6.60;99.90;;;;;;5092457;28;21000;-71
2022/11/08 03:53:45;;;;;;;1999.90;999.90;;;6.60;99.90;;;;;;5092569;28;20832;-72
2022/11/08 03:56:12;;;;;;;1999.90;999.90;;;6.60;99.90;;;;;;5092765;28;20445;-71
2022/11/08 03:58:39;;;;;;;1999.90;999.90;;;6.50;99.90;;;;;;5092448;28;20450;-71
2022/11/08 04:01:06;;;;;;;1999.90;999.90;;;6.50;99.90;;;;;;5092335;28;20462;-71
2022/11/08 04:03:33;;;;;;;1999.90;999.90;;;6.50;99.90;;;;;;5092474;28;20442;-71
2022/11/08 04:06:00;;;;;;;1999.90;999.90;;;6.50;99.90;;;;;;5092193;28;20442;-71
2022/11/08 04:08:30;;;;;;;1999.90;999.90;;;6.40;99.90;;;;;;5092298;28;20454;-70
2022/11/08 04:10:56;;;;;;;1999.90;999.90;;;6.50;99.90;;;;;;5091842;28;20834;-71
2022/11/08 04:16:27;;;;;;;1999.90;999.90;;;6.50;99.90;;;;;;5092040;28;20954;-72
2022/11/08 04:21:38;;;;;;;1999.90;999.90;;;6.60;99.90;;;;;;5091688;28;21201;-71
2022/11/08 04:24:07;;;;;;;1999.90;999.90;;;6.60;99.90;;;;;;5092109;28;20815;-71
2022/11/08 04:26:34;;;;;;;1999.90;999.90;;;6.60;99.90;;;;;;5091837;28;20450;-70
2022/11/08 04:29:02;;;;;;;1999.90;999.90;;;6.50;99.90;;;;;;5091703;28;20434;-71
2022/11/08 04:31:29;;;;;;;1999.90;999.90;;;6.50;99.90;;;;;;5091648;28;20446;-72
2022/11/08 04:33:55;;;;;;;1999.90;999.90;;;6.50;99.90;;;;;;5091175;28;20450;-71
2022/11/08 04:36:22;;;;;;;1999.90;999.90;;;6.50;99.90;;;;;;5091665;28;20431;-71
2022/11/08 04:38:49;;;;;;;1999.90;999.90;;;6.50;99.90;;;;;;5091512;28;20971;-71
2022/11/08 04:41:19;;;;;;;1999.90;999.90;;;6.40;99.90;;;;;;5091240;28;20462;-71
2022/11/08 04:43:46;;;;;;;1999.90;999.90;;;6.40;99.90;;;;;;5091514;28;20525;-71
2022/11/08 04:46:15;;;;;;;1999.90;999.90;;;6.40;99.90;;;;;;5091562;28;20438;-71
2022/11/08 04:48:42;;;;;;;1999.90;999.90;;;6.40;99.90;;;;;;5091315;28;20442;-71
2022/11/08 04:51:13;;;;;;;1999.90;999.90;;;6.50;99.90;;;;;;5091272;28;20466;-71
2022/11/08 04:53:40;;;;;;;1999.90;999.90;;;6.50;99.90;;;;;;5091163;28;21008;-71
2022/11/08 04:56:09;;;;;;;1999.90;999.90;;;6.40;99.90;;;;;;5091063;28;20443;-71
2022/11/08 04:58:39;;;;;;;1999.90;999.90;;;6.50;99.90;;;;;;5091131;28;20445;-71
2022/11/08 05:01:07;;;;;;;1999.90;999.90;;;6.40;99.90;;;;;;5089471;28;20466;-71
2022/11/08 05:03:34;;;;;;;1999.90;999.90;;;6.50;99.90;;;;;;5091066;28;20821;-71
2022/11/08 05:06:03;;;;;;;1999.90;999.90;;;6.40;99.90;;;;;;5091056;28;20446;-71
2022/11/08 05:08:30;;;;;;;1999.90;999.90;;;6.40;99.90;;;;;;5090976;28;20454;-71
2022/11/08 05:11:01;;;;;;;1999.90;999.90;;;6.40;99.90;;;;;;5090767;28;20466;-71
2022/11/08 05:13:28;;;;;;;1999.90;999.90;;;6.30;99.90;;;;;;5090459;28;20903;-72
2022/11/08 05:15:59;;;;;;;1999.90;999.90;;;6.30;99.90;;;;;;5090933;28;20450;-71
2022/11/08 05:18:26;;;;;;;1999.90;999.90;;;6.30;99.90;;;;;;5090803;28;20461;-71
2022/11/08 05:23:38;;;;;;;1999.90;999.90;;;6.30;99.90;;;;;;5090413;28;20458;-72
2022/11/08 05:26:05;;;;;;;1999.90;999.90;;;6.20;99.90;;;;;;5090836;28;20446;-71
2022/11/08 05:28:32;;;;;;;1999.90;999.90;;;6.20;99.90;;;;;;5090622;28;20970;-71
2022/11/08 05:31:00;;;;;;;1999.90;999.90;;;6.30;99.90;;;;;;5090352;28;20469;-71
2022/11/08 05:33:27;;;;;;;1999.90;999.90;;;6.30;99.90;;;;;;5090087;28;20486;-71
2022/11/08 05:35:54;;;;;;;1999.90;999.90;;;6.30;99.90;;;;;;5090237;28;20446;-71
2022/11/08 05:38:21;;;;;;;1999.90;999.90;;;6.20;99.90;;;;;;5090203;28;20442;-71
2022/11/08 05:40:48;;;;;;;1999.90;999.90;;;6.10;99.90;;;;;;5090179;28;20473;-71
2022/11/08 05:43:14;;;;;;;1999.90;999.90;;;6.10;99.90;;;;;;5090212;28;20438;-72
2022/11/08 05:45:41;;;;;;;1999.90;999.90;;;6.10;99.90;;;;;;5090384;28;20446;-71
2022/11/08 05:48:09;;;;;;;1999.90;999.90;;;6.10;99.90;;;;;;5090389;28;20453;-73
2022/11/08 05:50:36;;;;;;;1999.90;999.90;;;6.00;99.90;;;;;;5089753;28;20462;-71
2022/11/08 05:53:03;;;;;;;1999.90;999.90;;;6.00;99.90;;;;;;5089807;28;20484;-71
2022/11/08 05:55:30;;;;;;;1999.90;999.90;;;6.00;99.90;;;;;;5090193;28;20527;-71
2022/11/08 05:57:57;;;;;;;1999.90;999.90;;;5.90;99.90;;;;;;5090164;28;20453;-71
2022/11/08 06:00:24;;;;;;;1999.90;999.90;;;5.80;99.90;;;;;;5089704;28;20458;-72
2022/11/08 06:02:51;;;;;;;1999.90;999.90;;;5.80;99.90;;;;;;5086300;28;20451;-72
2022/11/08 06:05:19;;;;;;;1999.90;999.90;;;5.80;99.90;;;;;;5083957;28;20438;-71
2022/11/08 06:07:46;;;;;;;1999.90;999.90;;;5.80;99.90;;;;;;5084893;28;20891;-71
2022/11/08 06:10:13;;;;;;;1999.90;999.90;;;5.80;99.90;;;;;;5082374;28;20462;-72
2022/11/08 06:12:40;;;;;;;1999.90;999.90;;;5.80;99.90;;;;;;5084220;28;20496;-72
2022/11/08 06:15:08;;;;;;;1999.90;999.90;;;5.80;99.90;;;;;;5087240;28;20939;-72
2022/11/08 06:17:35;;;;;;;1999.90;999.90;;;5.80;99.90;;;;;;5084796;28;20438;-72
2022/11/08 06:20:02;;;;;;;1999.90;999.90;;;5.70;99.90;;;;;;5079424;28;21016;-72
2022/11/08 06:22:32;;;;;;;1999.90;999.90;;;5.70;99.90;;;;;;5088483;28;20500;-72
2022/11/08 06:24:59;;;;;;;1999.90;999.90;;;5.60;99.90;;;;;;5088517;28;20450;-72
2022/11/08 06:27:26;;;;;;;1999.90;999.90;;;5.60;99.90;;;;;;5089717;28;20450;-72
2022/11/08 06:29:52;;;;;;;1999.90;999.90;;;5.60;99.90;;;;;;5089562;28;20464;-72
2022/11/08 06:32:19;;;;;;;1999.90;999.90;;;5.60;99.90;;;;;;5089198;28;20474;-72
2022/11/08 06:34:47;;;;;;;1999.90;999.90;;;5.60;99.90;;;;;;5089346;28;20481;-72
2022/11/08 06:37:14;;;;;;;1999.90;999.90;;;5.60;99.90;;;;;;5089551;28;20446;-72
2022/11/08 06:39:43;;;;;;;1999.90;999.90;;;5.60;99.90;;;;;;5088363;28;20858;-72
2022/11/08 06:42:10;;;;;;;1999.90;999.90;;;5.60;99.90;;;;;;5089177;28;20196;-72
2022/11/08 06:44:37;;;;;;;1999.90;999.90;;;5.60;99.90;;;;;;5089562;28;20450;-72
2022/11/08 06:47:04;;;;;;;1999.90;999.90;;;5.50;99.90;;;;;;5089365;28;20442;-72
2022/11/08 06:49:30;;;;;;;1999.90;999.90;;;5.70;99.90;;;;;;5089490;28;20458;-72
2022/11/08 06:51:57;;;;;;;1999.90;999.90;;;5.70;99.90;;;;;;5089132;28;20861;-73
2022/11/08 06:54:24;;;;;;;1999.90;999.90;;;5.70;99.90;;;;;;5089499;28;20813;-73
2022/11/08 06:56:54;;;;;;;1999.90;999.90;;;5.70;99.90;;;;;;5089304;28;20951;-73
2022/11/08 06:59:21;;;;;;;1999.90;999.90;;;5.80;99.90;;;;;;5089125;28;20873;-72
2022/11/08 07:01:48;;;;;;;1999.90;999.90;;;5.90;99.90;;;;;;5088887;28;20444;-72
2022/11/08 07:04:14;;;;;;;1999.90;999.90;;;5.90;99.90;;;;;;5089404;28;20437;-72
2022/11/08 07:06:41;;;;;;;1999.90;999.90;;;6.00;99.90;;;;;;5089363;28;20438;-72
2022/11/08 07:09:08;;;;;;;1999.90;999.90;;;6.10;99.90;;;;;;5089346;28;20802;-72
2022/11/08 07:11:35;;;;;;;1999.90;999.90;;;6.10;99.90;;;;;;5089160;28;20548;-72
2022/11/08 07:14:03;;;;;;;1999.90;999.90;;;6.20;99.90;;;;;;5088756;28;20469;-72
2022/11/08 07:16:30;;;;;;;1999.90;999.90;;;6.20;99.90;;;;;;5088895;28;20745;-73
2022/11/08 07:18:57;;;;;;;1999.90;999.90;;;6.30;99.90;;;;;;5089145;28;20936;-73
2022/11/08 07:21:24;;;;;;;1999.90;999.90;;;6.40;99.90;;;;;;5088926;28;21306;-72
2022/11/08 07:23:50;;;;;;;1999.90;999.90;;;6.50;99.90;;;;;;5090153;28;20438;-72
2022/11/08 07:26:17;;;;;;;1999.90;999.90;;;6.50;99.90;;;;;;5092940;28;20438;-72
2022/11/08 07:28:44;;;;;;;1999.90;999.90;;;6.60;99.90;;;;;;5092568;28;20445;-72
2022/11/08 07:31:12;;;;;;;1999.90;999.90;;;6.80;99.90;;;;;;5092605;28;20464;-72
2022/11/08 07:33:39;;;;;;;1999.90;999.90;;;6.90;99.90;;;;;;5092694;28;20485;-72
2022/11/08 07:36:06;;;;;;;1999.90;999.90;;;7.00;99.90;;;;;;5092800;28;20441;-71
2022/11/08 07:38:33;;;;;;;1999.90;999.90;;;7.10;99.90;;;;;;5092633;28;20438;-72
2022/11/08 07:41:01;;;;;;;1999.90;999.90;;;7.30;99.90;;;;;;5092167;28;20462;-73
2022/11/08 07:43:28;;;;;;;1999.90;999.90;;;7.40;99.90;;;;;;5092133;28;20445;-73
2022/11/08 07:45:56;;;;;;;1999.90;999.90;;;7.50;99.90;;;;;;5092845;28;20438;-73
2022/11/08 07:48:24;;;;;;;1999.90;999.90;;;7.60;99.90;;;;;;5092678;28;20442;-72
2022/11/08 07:50:51;;;;;;;1999.90;999.90;;;7.70;99.90;;;;;;5092360;28;20458;-73
2022/11/08 07:53:18;;;;;;;1999.90;999.90;;;7.70;99.90;;;;;;5092153;28;20469;-72
2022/11/08 07:55:46;;;;;;;1999.90;999.90;;;7.60;99.90;;;;;;5092335;28;20442;-73
2022/11/08 07:58:13;;;;;;;1999.90;999.90;;;7.60;99.90;;;;;;5092745;28;20434;-73
2022/11/08 08:00:42;;;;;;;1999.90;999.90;;;7.50;99.90;;;;;;5092365;28;20465;-73
2022/11/08 08:03:11;;;;;;;1999.90;999.90;;;7.50;99.90;;;;;;5092275;28;20449;-73
2022/11/08 08:05:41;;;;;;;1999.90;999.90;;;7.40;99.90;;;;;;5092099;28;20445;-73
2022/11/08 08:08:08;;;;;;;1999.90;999.90;;;7.40;99.90;;;;;;5088989;28;20966;-72
2022/11/08 08:10:35;;;;;;;1999.90;999.90;;;7.40;99.90;;;;;;5086252;28;20490;-72
2022/11/08 08:13:02;;;;;;;1999.90;999.90;;;7.60;99.90;;;;;;5091996;28;20474;-72
2022/11/08 08:15:29;;;;;;;1999.90;999.90;;;7.90;99.90;;;;;;5092273;28;20465;-72
2022/11/08 08:17:59;;;;;;;1999.90;999.90;;;8.10;99.90;;;;;;5092147;28;20924;-72
2022/11/08 08:20:25;;;;;;;1999.90;999.90;;;8.50;99.90;;;;;;5092187;28;20458;-73
2022/11/08 08:22:53;;;;;;;1999.90;999.90;;;8.90;99.90;;;;;;5091852;28;20434;-73
2022/11/08 08:25:20;;;;;;;1999.90;999.90;;;9.50;99.90;;;;;;5092105;28;20493;-72
2022/11/08 08:27:48;;;;;;;1999.90;999.90;;;10.00;99.90;;;;;;5092238;28;20445;-73
2022/11/08 08:30:16;;;;;;;1999.90;999.90;;;10.50;99.90;;;;;;5092047;28;21058;-74
2022/11/08 08:32:43;;;;;;;1999.90;999.90;;;10.80;99.90;;;;;;5091938;28;20493;-72
2022/11/08 08:35:11;;;;;;;1999.90;999.90;;;11.00;99.90;;;;;;5091815;28;20951;-72
2022/11/08 08:37:38;;;;;;;1999.90;999.90;;;11.30;99.90;;;;;;5092218;28;20482;-73
2022/11/08 08:40:09;;;;;;;1999.90;999.90;;;11.60;99.90;;;;;;5091643;28;20458;-73
2022/11/08 08:42:36;;;;;;;1999.90;999.90;;;11.80;99.90;;;;;;5091335;28;20454;-73
2022/11/08 08:45:02;;;;;;;1999.90;999.90;;;12.00;99.90;;;;;;5091281;28;20446;-73
2022/11/08 08:47:29;;;;;;;1999.90;999.90;;;12.30;99.90;;;;;;5091114;28;20990;-73
2022/11/08 08:49:56;;;;;;;1999.90;999.90;;;12.50;99.90;;;;;;5090924;28;20462;-73
2022/11/08 08:52:23;;;;;;;1999.90;999.90;;;12.50;99.90;;;;;;5090754;28;20449;-74
2022/11/08 08:54:49;;;;;;;1999.90;999.90;;;12.40;99.90;;;;;;5089452;28;21019;-73
2022/11/08 08:57:17;;;;;;;1999.90;999.90;;;12.50;99.90;;;;;;5090477;28;20442;-73
2022/11/08 08:59:44;;;;;;;1999.90;999.90;;;12.40;99.90;;;;;;5090470;28;20995;-73
2022/11/08 09:02:12;;;;;;;1999.90;999.90;;;12.50;99.90;;;;;;5090322;28;20442;-73
2022/11/08 09:04:39;;;;;;;1999.90;999.90;;;12.60;99.90;;;;;;5090520;28;20442;-74
2022/11/08 09:07:06;;;;;;;1999.90;999.90;;;12.50;99.90;;;;;;5090445;28;20533;-73
2022/11/08 09:09:35;;;;;;;1999.90;999.90;;;12.50;99.90;;;;;;5090629;28;20549;-73
2022/11/08 09:12:01;;;;;;;1999.90;999.90;;;12.40;99.90;;;;;;5089681;28;20908;-74
2022/11/08 09:14:30;;;;;;;1999.90;999.90;;;12.30;99.90;;;;;;5089854;28;20477;-73
2022/11/08 09:16:56;;;;;;;1999.90;999.90;;;12.20;99.90;;;;;;5090239;28;20442;-73
2022/11/08 09:19:23;;;;;;;1999.90;999.90;;;12.10;99.90;;;;;;5089866;28;20465;-73
2022/11/08 09:21:50;;;;;;;1999.90;999.90;;;12.00;99.90;;;;;;5090071;28;20446;-74
2022/11/08 09:24:17;;;;;;;1999.90;999.90;;;12.00;99.90;;;;;;5090064;28;20430;-74
2022/11/08 09:26:44;;;;;;;1999.90;999.90;;;12.10;99.90;;;;;;5090093;28;20446;-73
2022/11/08 09:29:11;;;;;;;1999.90;999.90;;;12.30;99.90;;;;;;5090238;28;20446;-73
2022/11/08 09:31:39;;;;;;;1999.90;999.90;;;12.50;99.90;;;;;;5089786;28;20442;-73
2022/11/08 09:34:06;;;;;;;1999.90;999.90;;;12.60;99.90;;;;;;5073403;28;20474;-74
2022/11/08 09:36:32;;;;;;;1999.90;999.90;;;12.70;99.90;;;;;;5090050;28;20443;-74
2022/11/08 09:38:59;;;;;;;1999.90;999.90;;;12.80;99.90;;;;;;5089886;28;20446;-70
2022/11/08 09:41:50;;;;;;;1999.90;999.90;;;12.80;99.90;;;;;;5089729;28;20603;-71
2022/11/08 09:44:39;;;;;;;1999.90;999.90;;;12.70;99.90;;;;;;5075026;28;20441;-73
2022/11/08 09:47:14;;;;;;;1999.90;999.90;;;12.80;99.90;;;;;;5089273;28;20442;-70
2022/11/08 09:49:45;;;;;;;1999.90;999.90;;;13.00;99.90;;;;;;5089700;28;20469;-70
2022/11/08 09:52:21;;;;;;;1999.90;999.90;;;13.20;99.90;;;;;;5089043;28;20450;-69
2022/11/08 09:54:50;;;;;;;1999.90;999.90;;;13.10;99.90;;;;;;5089333;28;20474;-70
2022/11/08 09:57:24;;;;;;;1999.90;999.90;;;13.00;99.90;;;;;;5089890;28;20438;-69
2022/11/08 09:59:54;;;;;;;1999.90;999.90;;;12.90;99.90;;;;;;5089383;28;20462;-70
2022/11/08 10:02:24;;;;;;;1999.90;999.90;;;12.80;99.90;;;;;;5089393;28;20434;-69
2022/11/08 10:04:56;;;;;;;1999.90;999.90;;;12.90;99.90;;;;;;5089171;28;20438;-70
2022/11/08 10:07:32;;;;;;;1999.90;999.90;;;13.10;99.90;;;;;;5089746;28;20446;-70
2022/11/08 10:10:36;;;;;;;1999.90;999.90;;;13.30;99.90;;;;;;5089076;28;21347;-70
2022/11/08 10:13:11;;;;;;;1999.90;999.90;;;13.60;99.90;;;;;;5089202;28;20438;-70
2022/11/08 10:15:46;;;;;;;1999.90;999.90;;;13.90;99.90;;;;;;5089159;28;20812;-70
2022/11/08 10:18:40;;;;;;;1999.90;999.90;;;14.10;99.90;;;;;;5089271;28;20438;-70
2022/11/08 10:21:19;;;;;;;1999.90;999.90;;;14.40;99.90;;;;;;5088745;28;20976;-70
2022/11/08 10:23:50;;;;;;;1999.90;999.90;;;14.60;99.90;;;;;;5088801;28;20434;-70
2022/11/08 10:26:19;;;;;;;1999.90;999.90;;;14.90;99.90;;;;;;5089014;28;20443;-70
2022/11/08 10:28:50;;;;;;;1999.90;999.90;;;15.10;99.90;;;;;;5089127;28;20442;-69
2022/11/08 10:31:19;;;;;;;1999.90;999.90;;;15.20;99.90;;;;;;5088834;28;20465;-70
2022/11/08 10:33:50;;;;;;;1999.90;999.90;;;15.30;99.90;;;;;;5088429;28;20479;-70
2022/11/08 10:36:24;;;;;;;1999.90;999.90;;;15.20;99.90;;;;;;5089053;28;20435;-68
2022/11/08 10:38:59;;;;;;;1999.90;999.90;;;15.20;99.90;;;;;;5089172;28;20442;-70
2022/11/08 10:41:33;;;;;;;1999.90;999.90;;;15.10;99.90;;;;;;5089178;28;20470;-70
2022/11/08 10:44:05;;;;;;;1999.90;999.90;;;15.10;99.90;;;;;;5088879;28;20831;-70
2022/11/08 10:46:40;;;;;;;1999.90;999.90;;;15.10;99.90;;;;;;5089087;28;20445;-70
2022/11/08 10:49:21;;;;;;;1999.90;999.90;;;15.10;99.90;;;;;;5088904;28;20920;-70
2022/11/08 10:51:50;;;;;;;1999.90;999.90;;;15.00;99.90;;;;;;5089033;28;20438;-70
2022/11/08 10:54:43;;;;;;;1999.90;999.90;;;15.00;99.90;;;;;;5089040;28;21016;-70
2022/11/08 10:57:11;;;;;;;1999.90;999.90;;;15.10;99.90;;;;;;5089132;28;20453;-70
2022/11/08 10:59:37;;;;;;;1999.90;999.90;;;15.40;99.90;;;;;;5094907;28;20496;-70
2022/11/08 11:02:22;;;;;;;1999.90;999.90;;;15.60;99.90;;;;;;5076381;28;20469;-70
2022/11/08 11:04:51;;;;;;;1999.90;999.90;;;15.90;99.90;;;;;;5093244;28;20470;-70
2022/11/08 11:07:27;;;;;;;1999.90;999.90;;;15.90;99.90;;;;;;5091958;28;20463;-70
2022/11/08 11:09:54;;;;;;;1999.90;999.90;;;16.00;99.90;;;;;;5085068;28;20461;-71
2022/11/08 11:12:21;;;;;;;1999.90;999.90;;;16.00;99.90;;;;;;5092460;28;20441;-70
2022/11/08 11:14:56;;;;;;;1999.90;999.90;;;16.20;99.90;;;;;;5092878;28;20480;-71
2022/11/08 11:17:29;;;;;;;1999.90;999.90;;;16.30;99.90;;;;;;5092682;28;20502;-70
2022/11/08 11:19:59;;;;;;;1999.90;999.90;;;16.40;99.90;;;;;;5076795;28;20872;-72
2022/11/08 11:22:31;;;;;;;1999.90;999.90;;;16.50;99.90;;;;;;5092767;28;20540;-70
2022/11/08 11:25:05;;;;;;;1999.90;999.90;;;16.80;99.90;;;;;;5093378;28;20434;-71
2022/11/08 11:27:35;;;;;;;1999.90;999.90;;;16.90;99.90;;;;;;5092988;28;20441;-70
2022/11/08 11:30:31;;;;;;;1999.90;999.90;;;17.10;99.90;;;;;;5092729;28;20974;-70
2022/11/08 11:33:03;;;;;;;1999.90;999.90;;;17.20;99.90;;;;;;5056501;28;20438;-71
2022/11/08 11:35:44;;;;;;;1999.90;999.90;;;17.30;99.90;;;;;;5106232;28;20472;-70
2022/11/08 11:38:22;;;;;;;1999.90;999.90;;;17.30;99.90;;;;;;5092916;28;20429;-70
2022/11/08 11:40:51;;;;;;;1999.90;999.90;;;17.30;99.90;;;;;;5092296;28;20462;-70
2022/11/08 11:43:25;;;;;;;1999.90;999.90;;;17.50;99.90;;;;;;5093119;28;20438;-72
2022/11/08 11:45:57;;;;;;;1999.90;999.90;;;17.70;99.90;;;;;;5076656;28;20434;-69
2022/11/08 11:48:27;;;;;;;1999.90;999.90;;;17.70;99.90;;;;;;5092678;28;20497;-69
2022/11/08 11:50:56;;;;;;;1999.90;999.90;;;17.90;99.90;;;;;;5092538;28;20461;-69
2022/11/08 11:53:26;;;;;;;1999.90;999.90;;;18.00;99.90;;;;;;5092169;28;20446;-69
2022/11/08 11:56:15;;;;;;;1999.90;999.90;;;18.10;99.90;;;;;;5076358;28;20449;-69
2022/11/08 11:59:18;;;;;;;1999.90;999.90;;;18.40;99.90;;;;;;5093567;28;20438;-70
2022/11/08 12:01:54;;;;;;;1999.90;999.90;;;18.50;99.90;;;;;;5090546;28;20446;-69
2022/11/08 12:04:46;;;;;;;1999.90;999.90;;;18.70;99.90;;;;;;5091542;28;20445;-69
2022/11/08 12:07:19;;;;;;;1999.90;999.90;;;18.70;99.90;;;;;;5092950;28;20524;-69
2022/11/08 12:09:56;;;;;;;1999.90;999.90;;;18.70;99.90;;;;;;5091123;28;20461;-69
2022/11/08 12:12:43;;;;;;;1999.90;999.90;;;18.70;99.90;;;;;;5091431;28;20981;-69
2022/11/08 12:15:19;;;;;;;1999.90;999.90;;;18.60;99.90;;;;;;5090822;28;20485;-68
2022/11/08 12:18:14;;;;;;;1999.90;999.90;;;18.50;99.90;;;;;;5091468;28;20433;-69
2022/11/08 12:20:52;;;;;;;1999.90;999.90;;;18.40;99.90;;;;;;5087493;28;20466;-68
2022/11/08 12:23:50;;;;;;;1999.90;999.90;;;18.50;99.90;;;;;;5090744;28;20452;-69
2022/11/08 12:26:23;;;;;;;1999.90;999.90;;;18.60;99.90;;;;;;5088942;28;20430;-70
2022/11/08 12:29:13;;;;;;;1999.90;999.90;;;18.70;99.90;;;;;;5091478;28;20449;-70
2022/11/08 12:31:52;;;;;;;1999.90;999.90;;;18.90;99.90;;;;;;5076635;28;20439;-71
2022/11/08 12:34:23;;;;;;;1999.90;999.90;;;19.10;99.90;;;;;;5092540;28;20580;-70
2022/11/08 12:37:03;;;;;;;1999.90;999.90;;;19.40;99.90;;;;;;5079629;28;20563;-69